AIRPORT ID: HES

DATE: 2019-02-07 ZULU TIME: 6.55 LOCAL TIME: 22.55


METAR KHES 070655Z AUTO 00000KT 10SM 03/M04 A3025

ALTIMETER: A3025 Q1024

DENSITY ALT: -1200 Ft

WIND DIRECT: 290

WIND SPEED: 0 Gust

WIND CONDITIONS:

VISIBILTY: 10SM 9999M

TEMPERATURE: 38 F 3 C

DEW POINT: 24 F -4 C

HUMID: 58%

LCL: 1,000-3,000 feet

RADIO CHECK: 0

ADVISARIES: 1

GREETINGS: 0

CONVERSATIONS: 1